CDU weather

Camden Airport
New South Wales, Australia

Public forecast

Using degrees Celsius for public forecast. Weather courtesy of forecast.io.

METAR (pilot weather report)

Closest report is Sydney Kingsford Smith International Airport, 25.0 nm (46.4 km) ENE. Retrieved 2018/11/19 19:30 UTC (28 minutes ago):

YSSY 191930Z 01004KT 9999 FEW020 19/14 Q1015 NOSIG

TAF (pilot weather forecast)

Forecast is more than 12 hours old.

Closest forecast is Sydney Kingsford Smith International Airport, 25.0 nm (46.4 km) ENE. Retrieved 2018/11/19 06:36 UTC (13 hours ago):

TAF YSSY 190506Z 1906/2012 05015KT 9999 FEW045 FM191400 29008KT 9999 FEW025 FM192200 05015KT CAVOK FM200400 03015G25KT CAVOK FM201000 02015KT 9999 BKN045